Glenarm, Illinois
Current Conditions -  °F | °C
As of 12:52 PM on Monday 20 Oct 2014 (Local Time) from KSPI Reporting Station
Clear Clear  
Wind Chill: 70°   Ceiling: Unl
Heat Index: 70°   Visibility: 10mi
Dew Point: 45°   Wind: 13mph
Humidity: 41%   Direction: 320°NW
Pressure: 29.93"   Gusts: 23mph
Location:  39.62°N, 89.65°W
Report Text: KSPI 201752Z 32011G20KT 10SM CLR 21/07 A2993 RMK AO2 SLP133 T02110072 10211 20111 58008
Loading
Personal Weather Stations






























Interactive Weather Map
Tropical Storm Tracking
New forecast layout! Learn more

10-Day Weather Forecast

Advertisements
Track Severe Weather on mobile